Time;durP1;ratioP1;P1;durP2;ratioP2;P2;SDS_P1;SDS_P2;PMS_P1;PMS_P2;Temp;Humidity;BMP_temperature;BMP_pressure;BME280_temperature;BME280_humidity;BME280_pressure;Samples;Min_cycle;Max_cycle;Signal;HPM_P1;HPM_P2
2023/09/18 00:01:39;;;;;;;5.23;2.07;;;17.50;99.90;;;;;;5015311;28;20222;-61
2023/09/18 00:04:06;;;;;;;4.90;1.90;;;17.40;99.90;;;;;;5012325;28;20214;-61
2023/09/18 00:06:32;;;;;;;2.80;1.67;;;17.40;99.90;;;;;;5013075;28;20183;-61
2023/09/18 00:08:58;;;;;;;6.97;1.70;;;17.40;99.90;;;;;;5012594;28;20437;-61
2023/09/18 00:11:24;;;;;;;3.23;1.73;;;17.40;99.90;;;;;;5012840;28;20464;-61
2023/09/18 00:13:50;;;;;;;5.00;2.87;;;17.30;99.90;;;;;;5014753;28;20205;-61
2023/09/18 00:16:15;;;;;;;7.17;2.13;;;17.30;99.90;;;;;;5012575;28;20191;-61
2023/09/18 00:18:42;;;;;;;3.80;1.80;;;17.30;99.90;;;;;;5013325;28;20186;-61
2023/09/18 00:21:10;;;;;;;7.60;2.63;;;17.30;99.90;;;;;;5013907;28;20182;-61
2023/09/18 00:23:38;;;;;;;3.33;1.87;;;17.30;99.90;;;;;;5013269;28;20886;-61
2023/09/18 00:26:04;;;;;;;4.73;1.80;;;17.30;99.90;;;;;;5012123;28;20422;-61
2023/09/18 00:28:30;;;;;;;3.50;1.83;;;17.30;99.90;;;;;;5012788;28;20870;-61
2023/09/18 00:30:55;;;;;;;4.27;1.73;;;17.30;99.90;;;;;;5016032;28;20211;-61
2023/09/18 00:33:21;;;;;;;3.23;1.80;;;17.40;99.90;;;;;;5012740;28;20642;-61
2023/09/18 00:35:51;;;;;;;5.23;2.20;;;17.40;99.90;;;;;;5015849;28;20289;-61
2023/09/18 00:38:18;;;;;;;2.60;1.63;;;17.40;99.90;;;;;;5012123;28;20183;-61
2023/09/18 00:40:44;;;;;;;6.00;1.50;;;17.50;99.90;;;;;;5013576;28;20418;-61
2023/09/18 00:43:11;;;;;;;7.10;2.13;;;17.50;99.90;;;;;;5012600;28;20421;-61
2023/09/18 00:45:41;;;;;;;3.87;2.23;;;17.50;99.90;;;;;;5012113;28;20187;-61
2023/09/18 00:48:07;;;;;;;4.60;2.20;;;17.50;99.90;;;;;;5012402;28;20484;-61
2023/09/18 00:50:33;;;;;;;3.70;1.83;;;17.50;99.90;;;;;;5012448;28;21010;-61
2023/09/18 00:53:01;;;;;;;6.73;2.30;;;17.60;99.90;;;;;;4994731;28;20183;-61
2023/09/18 00:55:29;;;;;;;6.87;2.60;;;17.60;99.90;;;;;;5012409;28;20260;-61
2023/09/18 00:57:56;;;;;;;4.43;2.17;;;17.60;99.90;;;;;;5012022;28;20454;-61
2023/09/18 01:00:22;;;;;;;3.67;2.10;;;17.60;99.90;;;;;;5011399;28;20422;-61
2023/09/18 01:02:48;;;;;;;3.20;1.73;;;17.60;99.90;;;;;;5015683;28;20457;-61
2023/09/18 01:05:16;;;;;;;2.87;1.70;;;17.70;99.90;;;;;;5012358;28;20461;-61
2023/09/18 01:07:42;;;;;;;4.47;2.33;;;17.70;99.90;;;;;;5011295;28;20422;-61
2023/09/18 01:10:09;;;;;;;5.60;2.33;;;17.70;99.90;;;;;;5011176;28;20478;-61
2023/09/18 01:12:51;;;;;;;4.13;1.57;;;17.80;99.90;;;;;;5011471;28;20814;-61
2023/09/18 01:15:16;;;;;;;5.03;1.97;;;17.90;99.90;;;;;;5011877;28;20426;-61
2023/09/18 01:17:43;;;;;;;5.47;2.30;;;17.90;99.90;;;;;;5011386;28;20571;-61
2023/09/18 01:20:12;;;;;;;4.03;1.83;;;17.90;99.90;;;;;;5012267;28;20190;-61
2023/09/18 01:22:38;;;;;;;3.40;1.67;;;17.90;99.90;;;;;;5011659;28;20764;-61
2023/09/18 01:25:05;;;;;;;3.80;1.80;;;17.90;99.90;;;;;;5011144;28;20474;-61
2023/09/18 01:27:31;;;;;;;7.83;2.00;;;17.90;99.90;;;;;;5011460;28;20377;-61
2023/09/18 01:29:57;;;;;;;5.67;1.87;;;17.90;99.90;;;;;;5012269;28;20573;-61
2023/09/18 01:32:27;;;;;;;3.93;1.50;;;18.00;99.90;;;;;;5011671;28;20213;-61
2023/09/18 01:34:54;;;;;;;3.97;1.57;;;18.10;99.90;;;;;;5016700;28;20686;-61
2023/09/18 01:37:22;;;;;;;6.47;1.67;;;18.40;99.90;;;;;;5013878;28;20418;-61
2023/09/18 01:39:50;;;;;;;3.67;1.30;;;19.00;99.90;;;;;;5011165;28;20458;-61
2023/09/18 01:42:17;;;;;;;7.07;2.17;;;19.30;99.90;;;;;;5012035;28;20824;-61
2023/09/18 01:44:43;;;;;;;3.60;1.47;;;19.60;99.90;;;;;;5011567;28;20438;-61
2023/09/18 01:47:12;;;;;;;5.10;2.50;;;19.70;99.90;;;;;;5011093;28;20458;-61
2023/09/18 01:49:40;;;;;;;5.53;2.10;;;19.60;99.90;;;;;;5011330;28;21542;-61
2023/09/18 01:52:07;;;;;;;6.07;2.10;;;18.90;99.90;;;;;;5011530;28;20489;-62
2023/09/18 01:54:34;;;;;;;4.27;1.17;;;18.60;99.90;;;;;;5011352;28;20968;-61
2023/09/18 01:57:00;;;;;;;11.87;2.77;;;18.60;99.90;;;;;;5011393;28;20875;-60
2023/09/18 01:59:26;;;;;;;5.10;1.70;;;18.30;99.90;;;;;;5010959;28;20461;-61
2023/09/18 02:01:53;;;;;;;3.97;1.53;;;17.90;99.90;;;;;;5010824;28;20418;-61
2023/09/18 02:04:19;;;;;;;3.83;2.00;;;17.80;99.90;;;;;;5011210;28;20437;-60
2023/09/18 02:06:47;;;;;;;8.43;1.93;;;17.90;99.90;;;;;;5011188;28;20414;-61
2023/09/18 02:09:13;;;;;;;3.23;1.53;;;17.80;99.90;;;;;;5010859;28;20480;-60
2023/09/18 02:11:41;;;;;;;7.90;1.97;;;17.70;99.90;;;;;;5010852;28;20429;-61
2023/09/18 02:14:09;;;;;;;5.30;2.43;;;17.60;99.90;;;;;;5010958;28;20425;-61
2023/09/18 02:16:36;;;;;;;2.40;1.60;;;17.60;99.90;;;;;;5010291;28;20410;-61
2023/09/18 02:19:05;;;;;;;3.47;2.20;;;17.60;99.90;;;;;;5011278;28;20461;-61
2023/09/18 02:21:31;;;;;;;7.03;2.70;;;17.60;99.90;;;;;;5010781;28;20445;-61
2023/09/18 02:23:57;;;;;;;5.97;2.37;;;17.60;99.90;;;;;;5011194;28;20429;-61
2023/09/18 02:26:24;;;;;;;5.30;2.73;;;17.60;99.90;;;;;;5009727;28;20406;-61
2023/09/18 02:28:53;;;;;;;11.50;2.50;;;17.60;99.90;;;;;;4994994;28;20766;-61
2023/09/18 02:31:18;;;;;;;11.13;1.67;;;17.50;99.90;;;;;;5010436;28;20638;-60
2023/09/18 02:33:44;;;;;;;12.80;2.80;;;17.50;99.90;;;;;;5012678;28;20426;-61
2023/09/18 02:36:10;;;;;;;13.00;2.10;;;17.40;99.90;;;;;;5012944;28;20195;-60
2023/09/18 02:38:35;;;;;;;7.53;1.87;;;17.50;99.90;;;;;;5010356;28;20190;-61
2023/09/18 02:41:01;;;;;;;7.23;1.93;;;17.50;99.90;;;;;;5010297;28;20622;-61
2023/09/18 02:43:27;;;;;;;15.83;1.97;;;17.50;99.90;;;;;;5010809;28;20266;-61
2023/09/18 02:45:53;;;;;;;3.77;1.87;;;17.50;99.90;;;;;;5010070;28;20213;-60
2023/09/18 02:48:19;;;;;;;6.97;1.73;;;17.50;99.90;;;;;;5016628;28;20198;-60
2023/09/18 02:50:45;;;;;;;17.23;1.93;;;17.40;99.90;;;;;;5011124;28;20293;-61
2023/09/18 02:53:19;;;;;;;10.80;1.50;;;17.40;99.90;;;;;;5011151;28;20469;-61
2023/09/18 02:55:45;;;;;;;3.63;1.53;;;17.40;99.90;;;;;;5011935;28;20816;-60
2023/09/18 02:58:10;;;;;;;5.07;1.37;;;17.30;99.90;;;;;;5014795;28;20578;-60
2023/09/18 03:00:44;;;;;;;3.97;1.63;;;17.30;99.90;;;;;;5013848;28;20463;-61
2023/09/18 03:03:10;;;;;;;9.30;3.30;;;17.20;99.90;;;;;;5022981;28;20301;-61
2023/09/18 03:05:36;;;;;;;4.33;1.60;;;17.20;99.90;;;;;;5014810;28;20938;-61
2023/09/18 03:08:02;;;;;;;4.60;1.93;;;17.20;99.90;;;;;;5014288;28;20417;-61
2023/09/18 03:10:32;;;;;;;5.07;1.70;;;17.10;99.90;;;;;;5013970;28;21044;-61
2023/09/18 03:12:57;;;;;;;4.03;1.43;;;17.00;99.90;;;;;;5014335;28;20422;-61
2023/09/18 03:15:23;;;;;;;9.93;2.27;;;17.00;99.90;;;;;;5021064;28;20509;-61
2023/09/18 03:17:50;;;;;;;5.83;1.60;;;17.00;99.90;;;;;;5013659;28;20565;-61
2023/09/18 03:20:16;;;;;;;10.00;2.13;;;16.90;99.90;;;;;;5014743;28;20230;-61
2023/09/18 03:22:42;;;;;;;4.73;1.67;;;16.90;99.90;;;;;;5014052;28;20425;-61
2023/09/18 03:25:08;;;;;;;3.60;1.50;;;16.80;99.90;;;;;;5013926;28;20181;-61
2023/09/18 03:27:33;;;;;;;12.07;3.20;;;16.80;99.90;;;;;;5013858;28;20179;-61
2023/09/18 03:29:59;;;;;;;5.73;2.00;;;16.80;99.90;;;;;;5014899;28;20491;-61
2023/09/18 03:32:25;;;;;;;15.37;2.03;;;16.90;99.90;;;;;;5013852;28;20217;-61
2023/09/18 03:34:51;;;;;;;5.63;1.87;;;16.90;99.90;;;;;;5017801;28;20183;-61
2023/09/18 03:37:17;;;;;;;7.03;2.13;;;17.00;99.90;;;;;;5013822;28;20183;-61
2023/09/18 03:39:42;;;;;;;19.40;2.10;;;17.10;99.90;;;;;;5013342;28;20782;-61
2023/09/18 03:42:08;;;;;;;9.87;1.77;;;17.30;99.90;;;;;;5013715;28;20218;-61
2023/09/18 03:44:33;;;;;;;8.83;1.67;;;17.40;99.90;;;;;;5013893;28;20184;-61
2023/09/18 03:46:59;;;;;;;3.13;1.43;;;17.40;99.90;;;;;;5013299;28;20658;-60
2023/09/18 03:49:25;;;;;;;10.83;1.57;;;17.50;99.90;;;;;;5015637;28;20187;-60
2023/09/18 03:51:50;;;;;;;4.80;1.57;;;17.60;99.90;;;;;;5013388;28;20234;-61
2023/09/18 03:54:16;;;;;;;3.70;1.60;;;17.60;99.90;;;;;;5013853;28;20202;-61
2023/09/18 03:56:41;;;;;;;5.80;2.40;;;17.60;99.90;;;;;;5013475;28;20226;-61
2023/09/18 03:59:07;;;;;;;5.37;2.20;;;17.60;99.90;;;;;;5012986;28;20205;-61
2023/09/18 04:01:32;;;;;;;21.00;2.17;;;17.70;99.90;;;;;;5013164;28;20183;-61
2023/09/18 04:03:58;;;;;;;8.83;2.40;;;17.90;99.90;;;;;;5014181;28;20317;-61
2023/09/18 04:06:24;;;;;;;3.80;1.60;;;18.10;99.90;;;;;;5018406;28;20646;-62
2023/09/18 04:08:51;;;;;;;14.53;3.27;;;18.20;99.90;;;;;;5013438;28;20186;-62
2023/09/18 04:11:17;;;;;;;3.90;2.10;;;18.30;99.90;;;;;;5013371;28;20203;-62
2023/09/18 04:13:42;;;;;;;2.70;1.50;;;18.30;99.90;;;;;;5014031;28;20418;-62
2023/09/18 04:16:08;;;;;;;4.73;1.50;;;18.30;99.90;;;;;;5012310;28;20422;-62
2023/09/18 04:18:34;;;;;;;4.73;2.03;;;18.30;99.90;;;;;;5013520;28;20265;-62
2023/09/18 04:20:59;;;;;;;15.20;1.93;;;18.30;99.90;;;;;;5013224;28;20202;-62
2023/09/18 04:23:27;;;;;;;10.67;1.77;;;18.30;99.90;;;;;;5013398;28;20190;-62
2023/09/18 04:25:53;;;;;;;6.40;1.70;;;18.30;99.90;;;;;;5012535;28;20187;-62
2023/09/18 04:28:22;;;;;;;3.43;1.47;;;18.30;99.90;;;;;;5013305;28;20450;-62
2023/09/18 04:30:48;;;;;;;11.17;2.20;;;18.30;99.90;;;;;;5012198;28;20466;-62
2023/09/18 04:33:14;;;;;;;11.43;1.20;;;18.30;99.90;;;;;;5012778;28;20420;-62
2023/09/18 04:35:40;;;;;;;5.70;1.13;;;18.20;99.90;;;;;;5018481;28;20223;-62
2023/09/18 04:38:10;;;;;;;4.03;1.07;;;18.10;99.90;;;;;;5012826;28;20422;-62
2023/09/18 04:40:36;;;;;;;5.63;1.50;;;18.00;99.90;;;;;;5019074;28;20171;-62
2023/09/18 04:43:04;;;;;;;5.03;1.73;;;18.00;99.90;;;;;;5012952;28;20406;-62
2023/09/18 04:45:31;;;;;;;5.33;1.10;;;17.90;99.90;;;;;;5012489;28;20422;-62
2023/09/18 04:47:57;;;;;;;2.03;1.07;;;18.00;99.90;;;;;;5012061;28;20492;-62
2023/09/18 04:50:23;;;;;;;14.10;1.43;;;17.90;99.90;;;;;;5013063;28;20457;-62
2023/09/18 04:52:50;;;;;;;4.00;1.33;;;17.80;99.90;;;;;;5012206;28;20445;-62
2023/09/18 04:55:16;;;;;;;6.57;1.30;;;17.90;99.90;;;;;;5012353;28;20263;-62
2023/09/18 04:57:42;;;;;;;1.50;0.73;;;17.90;99.90;;;;;;5012069;28;20497;-62
2023/09/18 05:00:08;;;;;;;3.30;1.43;;;17.90;99.90;;;;;;5012253;28;20631;-62
2023/09/18 05:02:35;;;;;;;4.13;0.93;;;17.80;99.90;;;;;;5011885;28;20519;-62
2023/09/18 05:05:01;;;;;;;4.73;1.67;;;17.80;99.90;;;;;;5012979;28;20465;-62
2023/09/18 05:07:26;;;;;;;2.80;1.13;;;17.70;99.90;;;;;;5012364;28;20429;-62
2023/09/18 05:09:52;;;;;;;9.83;1.70;;;17.70;99.90;;;;;;5011957;28;20473;-62
2023/09/18 05:12:18;;;;;;;6.50;1.70;;;17.80;99.90;;;;;;5011636;28;20179;-62
2023/09/18 05:14:44;;;;;;;4.90;1.83;;;17.80;99.90;;;;;;5011927;28;20858;-62
2023/09/18 05:17:15;;;;;;;4.83;1.53;;;17.90;99.90;;;;;;5011653;28;20179;-62
2023/09/18 05:19:41;;;;;;;5.37;1.50;;;17.80;99.90;;;;;;5012010;28;20564;-62
2023/09/18 05:22:10;;;;;;;9.33;1.97;;;17.90;99.90;;;;;;5012120;28;20450;-62
2023/09/18 05:24:36;;;;;;;2.63;1.43;;;17.90;99.90;;;;;;5011623;28;20194;-62
2023/09/18 05:27:03;;;;;;;5.20;1.83;;;17.90;99.90;;;;;;5012004;28;20426;-62
2023/09/18 05:29:28;;;;;;;10.87;1.80;;;17.90;99.90;;;;;;5012560;28;20433;-62
2023/09/18 05:31:54;;;;;;;8.50;1.70;;;17.90;99.90;;;;;;5011760;28;20951;-63
2023/09/18 05:34:19;;;;;;;6.00;2.30;;;17.90;99.90;;;;;;5015151;28;20253;-62
2023/09/18 05:36:45;;;;;;;12.20;1.50;;;17.90;99.90;;;;;;5012372;28;20184;-62
2023/09/18 05:39:12;;;;;;;8.00;1.23;;;17.90;99.90;;;;;;5011430;28;20254;-62
2023/09/18 05:41:39;;;;;;;16.80;2.33;;;18.10;99.90;;;;;;5013508;28;20292;-62
2023/09/18 05:44:06;;;;;;;5.43;1.67;;;18.00;99.90;;;;;;5011995;28;20433;-62
2023/09/18 05:46:36;;;;;;;3.83;1.60;;;18.00;99.90;;;;;;5012426;28;20513;-62
2023/09/18 05:49:04;;;;;;;7.80;2.10;;;18.20;99.90;;;;;;5012974;28;20796;-63
2023/09/18 05:51:31;;;;;;;4.07;1.67;;;18.20;99.90;;;;;;5013328;28;20505;-62
2023/09/18 05:53:56;;;;;;;5.40;1.70;;;18.10;99.90;;;;;;5011341;28;20441;-63
2023/09/18 05:56:23;;;;;;;12.63;1.50;;;18.20;99.90;;;;;;5011266;28;20410;-62
2023/09/18 05:58:49;;;;;;;2.00;1.00;;;18.20;99.90;;;;;;5010519;28;21156;-63
2023/09/18 06:01:15;;;;;;;6.23;1.73;;;18.20;99.90;;;;;;5010561;28;20456;-63
2023/09/18 06:03:40;;;;;;;4.47;1.60;;;18.10;99.90;;;;;;5011840;28;20210;-63
2023/09/18 06:06:06;;;;;;;6.23;1.47;;;18.10;99.90;;;;;;5010860;28;20223;-63
2023/09/18 06:08:33;;;;;;;6.33;1.40;;;18.10;99.90;;;;;;5010835;28;20574;-63
2023/09/18 06:10:58;;;;;;;2.63;1.30;;;18.00;99.90;;;;;;5010994;28;20202;-63
2023/09/18 06:13:25;;;;;;;7.03;1.63;;;18.00;99.90;;;;;;5011327;28;20467;-63
2023/09/18 06:15:55;;;;;;;4.90;1.70;;;18.00;99.90;;;;;;5010497;28;20601;-63
2023/09/18 06:18:21;;;;;;;4.07;1.93;;;18.00;99.90;;;;;;5010964;28;20422;-63
2023/09/18 06:20:48;;;;;;;7.13;1.87;;;18.00;99.90;;;;;;5011215;28;20468;-63
2023/09/18 06:23:14;;;;;;;7.53;1.20;;;18.10;99.90;;;;;;5010832;28;20426;-63
2023/09/18 06:25:40;;;;;;;7.03;1.70;;;18.10;99.90;;;;;;5011046;28;20425;-63
2023/09/18 06:28:05;;;;;;;3.27;1.43;;;18.00;99.90;;;;;;5010740;28;20182;-63
2023/09/18 06:30:33;;;;;;;4.27;1.10;;;18.10;99.90;;;;;;5011227;28;20682;-63
2023/09/18 06:32:59;;;;;;;4.17;1.67;;;18.10;99.90;;;;;;5010360;28;20763;-63
2023/09/18 06:35:25;;;;;;;5.33;1.37;;;18.20;99.90;;;;;;5013902;28;20418;-63
2023/09/18 06:37:51;;;;;;;8.60;1.60;;;18.10;99.90;;;;;;5018618;28;20501;-63
2023/09/18 06:40:17;;;;;;;3.43;1.67;;;18.10;99.90;;;;;;5011068;28;20516;-63
2023/09/18 06:42:43;;;;;;;2.77;1.37;;;18.00;99.90;;;;;;5010804;28;20245;-63
2023/09/18 06:45:08;;;;;;;5.53;1.23;;;18.00;99.90;;;;;;5011201;28;20430;-63
2023/09/18 06:47:34;;;;;;;7.33;1.00;;;17.90;99.90;;;;;;5010210;28;20259;-63
2023/09/18 06:50:00;;;;;;;9.80;1.00;;;17.90;99.90;;;;;;5011542;28;20207;-63
2023/09/18 06:52:27;;;;;;;3.47;1.53;;;17.90;99.90;;;;;;5010837;28;20183;-63
2023/09/18 06:54:53;;;;;;;3.23;1.37;;;18.00;99.90;;;;;;5010624;28;20267;-63
2023/09/18 06:57:21;;;;;;;9.83;1.70;;;18.00;99.90;;;;;;5010853;28;20429;-63
2023/09/18 06:59:46;;;;;;;2.23;1.13;;;18.10;99.90;;;;;;5010318;28;20187;-63
2023/09/18 07:02:14;;;;;;;4.10;1.40;;;18.10;99.90;;;;;;5010027;28;20415;-63
2023/09/18 07:04:44;;;;;;;2.90;1.27;;;18.10;99.90;;;;;;5011497;28;20180;-63
2023/09/18 07:07:12;;;;;;;2.73;1.10;;;18.10;99.90;;;;;;5010309;28;20966;-63
2023/09/18 07:09:37;;;;;;;5.57;1.53;;;18.10;99.90;;;;;;5009916;28;20591;-62
2023/09/18 07:12:04;;;;;;;3.60;1.37;;;18.10;99.90;;;;;;5010533;28;20446;-63
2023/09/18 07:14:30;;;;;;;7.93;1.77;;;18.10;99.90;;;;;;5012112;28;20553;-63
2023/09/18 07:16:56;;;;;;;4.07;1.37;;;18.10;99.90;;;;;;5009602;28;20445;-63
2023/09/18 07:19:22;;;;;;;3.13;1.53;;;18.10;99.90;;;;;;5010923;28;20853;-63
2023/09/18 07:21:47;;;;;;;2.20;1.20;;;18.00;99.90;;;;;;5010035;28;20517;-63
2023/09/18 07:24:16;;;;;;;8.23;1.73;;;18.10;99.90;;;;;;5011070;28;20567;-62
2023/09/18 07:26:47;;;;;;;2.43;1.10;;;18.10;99.90;;;;;;5011771;28;20241;-63
2023/09/18 07:29:14;;;;;;;3.30;1.30;;;18.10;99.90;;;;;;5011217;28;20426;-63
2023/09/18 07:31:41;;;;;;;9.40;2.03;;;18.10;99.90;;;;;;5009600;28;20825;-63
2023/09/18 07:34:06;;;;;;;5.80;1.57;;;18.10;99.90;;;;;;5013700;28;20429;-62
2023/09/18 07:36:32;;;;;;;2.47;1.20;;;18.10;99.90;;;;;;5011862;28;20415;-62
2023/09/18 07:38:58;;;;;;;2.40;1.10;;;18.20;99.90;;;;;;5009941;28;20179;-62
2023/09/18 07:41:25;;;;;;;5.97;1.70;;;18.20;99.90;;;;;;5009874;28;20258;-62
2023/09/18 07:43:50;;;;;;;2.63;1.33;;;18.20;99.90;;;;;;5014561;28;20174;-63
2023/09/18 07:46:16;;;;;;;3.13;1.50;;;18.20;99.90;;;;;;5012912;28;21040;-62
2023/09/18 07:48:42;;;;;;;3.07;1.17;;;18.30;99.90;;;;;;5015072;28;20201;-63
2023/09/18 07:51:15;;;;;;;5.40;1.10;;;18.30;99.90;;;;;;5013810;28;20194;-63
2023/09/18 07:53:42;;;;;;;4.70;1.30;;;18.40;99.90;;;;;;5013430;28;20265;-63
2023/09/18 07:56:07;;;;;;;4.63;1.10;;;18.40;99.90;;;;;;5013413;28;20430;-62
2023/09/18 07:58:33;;;;;;;9.30;1.13;;;18.40;99.90;;;;;;5013551;28;20460;-62
2023/09/18 08:00:59;;;;;;;3.00;1.10;;;18.40;99.90;;;;;;5012965;28;20953;-62
2023/09/18 08:03:26;;;;;;;6.87;1.33;;;18.40;99.90;;;;;;5013684;28;20186;-63
2023/09/18 08:05:53;;;;;;;4.83;1.60;;;18.40;99.90;;;;;;5014063;28;20420;-63
2023/09/18 08:08:20;;;;;;;2.40;0.97;;;18.40;99.90;;;;;;5012884;28;20771;-62
2023/09/18 08:10:46;;;;;;;3.70;1.10;;;18.50;99.90;;;;;;5013551;28;20556;-62
2023/09/18 08:13:13;;;;;;;2.90;0.93;;;18.60;99.90;;;;;;5013728;28;20453;-62
2023/09/18 08:15:39;;;;;;;1.97;0.70;;;18.60;99.90;;;;;;5019751;28;20477;-62
2023/09/18 08:18:04;;;;;;;2.03;0.80;;;18.50;99.90;;;;;;5013014;28;20417;-63
2023/09/18 08:20:30;;;;;;;5.20;1.17;;;18.40;99.90;;;;;;5013787;28;20183;-62
2023/09/18 08:22:56;;;;;;;13.50;1.47;;;18.30;99.90;;;;;;5012905;28;20187;-63
2023/09/18 08:25:22;;;;;;;5.53;1.00;;;18.20;99.90;;;;;;5013715;28;20183;-62
2023/09/18 08:27:48;;;;;;;5.63;1.10;;;18.00;99.90;;;;;;5012627;28;20422;-62
2023/09/18 08:30:14;;;;;;;4.63;1.23;;;17.90;99.90;;;;;;5013721;28;20203;-62
2023/09/18 08:32:41;;;;;;;10.00;1.00;;;17.70;99.90;;;;;;5012379;28;20540;-62
2023/09/18 08:35:08;;;;;;;5.07;1.20;;;17.50;99.90;;;;;;5016649;28;20509;-62
2023/09/18 08:37:34;;;;;;;2.07;1.17;;;17.30;99.90;;;;;;5012232;28;20424;-62
2023/09/18 08:40:00;;;;;;;1.60;0.87;;;17.20;99.90;;;;;;5018321;28;20509;-62
2023/09/18 08:42:29;;;;;;;2.30;0.90;;;17.20;99.90;;;;;;5012670;28;20175;-62
2023/09/18 08:44:58;;;;;;;2.97;1.40;;;17.20;99.90;;;;;;5012758;28;20822;-62
2023/09/18 08:47:25;;;;;;;3.20;1.20;;;17.20;99.90;;;;;;5012194;28;20774;-62
2023/09/18 08:49:52;;;;;;;6.60;1.77;;;17.20;99.90;;;;;;5012538;28;20557;-62
2023/09/18 08:52:18;;;;;;;10.53;1.50;;;17.20;99.90;;;;;;5012246;28;20421;-62
2023/09/18 08:54:44;;;;;;;3.20;1.00;;;17.10;99.90;;;;;;5012362;28;20426;-62
2023/09/18 08:57:11;;;;;;;5.90;1.07;;;17.10;99.90;;;;;;5012512;28;20175;-62
2023/09/18 08:59:39;;;;;;;1.43;0.87;;;17.10;99.90;;;;;;5011633;28;20441;-62
2023/09/18 09:02:04;;;;;;;2.33;0.80;;;17.10;99.90;;;;;;5011387;28;20894;-62
2023/09/18 09:04:30;;;;;;;1.90;1.10;;;17.10;99.90;;;;;;5012765;28;20426;-62
2023/09/18 09:06:59;;;;;;;1.90;1.07;;;17.10;99.90;;;;;;5012073;28;20620;-62
2023/09/18 09:09:26;;;;;;;3.53;1.10;;;17.10;99.90;;;;;;5012410;28;20183;-62
2023/09/18 09:11:52;;;;;;;4.03;1.37;;;17.10;99.90;;;;;;5011569;28;20458;-62
2023/09/18 09:14:21;;;;;;;5.30;1.50;;;17.20;99.90;;;;;;5012940;28;20453;-62
2023/09/18 09:16:48;;;;;;;5.50;1.63;;;17.20;99.90;;;;;;5011345;28;20176;-62
2023/09/18 09:19:17;;;;;;;1.87;1.00;;;17.20;99.90;;;;;;5012377;28;20476;-62
2023/09/18 09:21:44;;;;;;;3.50;0.93;;;17.10;99.90;;;;;;5012079;28;20418;-62
2023/09/18 09:24:18;;;;;;;7.00;1.20;;;17.20;99.90;;;;;;5012714;28;20532;-62
2023/09/18 09:26:43;;;;;;;2.90;1.23;;;17.20;99.90;;;;;;5012136;28;20498;-62
2023/09/18 09:29:18;;;;;;;9.63;0.90;;;17.20;99.90;;;;;;5013645;28;20517;-62
2023/09/18 09:31:45;;;;;;;4.10;1.37;;;17.30;99.90;;;;;;5011283;28;20218;-62
2023/09/18 09:34:11;;;;;;;3.50;1.43;;;17.20;99.90;;;;;;5012789;28;20432;-62
2023/09/18 09:36:50;;;;;;;5.53;1.20;;;17.30;99.90;;;;;;5011353;28;20501;-62
2023/09/18 09:39:17;;;;;;;7.93;2.30;;;17.20;99.90;;;;;;5011807;28;20506;-62
2023/09/18 09:41:46;;;;;;;4.27;1.47;;;17.30;99.90;;;;;;5011619;28;20946;-62
2023/09/18 09:44:13;;;;;;;3.10;1.63;;;17.30;99.90;;;;;;5012198;28;20433;-62
2023/09/18 09:46:49;;;;;;;2.30;1.20;;;17.30;99.90;;;;;;5010893;28;20441;-62
2023/09/18 09:49:15;;;;;;;4.90;1.20;;;17.30;99.90;;;;;;5012372;28;20425;-62
2023/09/18 09:51:42;;;;;;;5.10;1.67;;;17.50;99.90;;;;;;5011228;28;21221;-62
2023/09/18 09:54:08;;;;;;;4.07;0.90;;;17.60;99.90;;;;;;5011858;28;20453;-62
2023/09/18 09:56:53;;;;;;;8.20;1.23;;;17.70;99.90;;;;;;5011205;28;20509;-62
2023/09/18 09:59:20;;;;;;;5.70;1.47;;;17.90;99.90;;;;;;5011783;28;20414;-62
2023/09/18 10:01:51;;;;;;;5.10;1.47;;;17.90;99.90;;;;;;5010752;28;20413;-62
2023/09/18 10:04:19;;;;;;;2.73;1.53;;;17.90;99.90;;;;;;5012066;28;21029;-62
2023/09/18 10:06:51;;;;;;;4.93;0.97;;;17.80;99.90;;;;;;5010933;28;20414;-62
2023/09/18 10:09:19;;;;;;;4.07;1.40;;;17.80;99.90;;;;;;5011127;28;20746;-62
2023/09/18 10:11:48;;;;;;;8.73;1.60;;;17.70;99.90;;;;;;5012319;28;20466;-62
2023/09/18 10:14:16;;;;;;;3.27;1.17;;;17.70;99.90;;;;;;5017734;28;20422;-62
2023/09/18 10:16:49;;;;;;;5.30;1.40;;;17.60;99.90;;;;;;5010340;28;20429;-62
2023/09/18 10:19:38;;;;;;;4.60;1.23;;;17.70;99.90;;;;;;5011916;28;20745;-62
2023/09/18 10:22:16;;;;;;;5.00;2.10;;;17.60;99.90;;;;;;5010677;28;20934;-61
2023/09/18 10:24:47;;;;;;;3.53;1.80;;;17.60;99.90;;;;;;5011599;28;20418;-62
2023/09/18 10:27:14;;;;;;;7.73;2.70;;;17.50;99.90;;;;;;5011236;28;20403;-62
2023/09/18 10:29:44;;;;;;;6.90;1.50;;;17.50;99.90;;;;;;5012141;28;20454;-62
2023/09/18 10:32:11;;;;;;;2.20;1.30;;;17.50;99.90;;;;;;5010139;28;20451;-62
2023/09/18 10:34:36;;;;;;;14.63;1.37;;;17.50;99.90;;;;;;5011027;28;20532;-62
2023/09/18 10:37:07;;;;;;;2.53;0.90;;;17.50;99.90;;;;;;5015558;28;20446;-62
2023/09/18 10:39:41;;;;;;;2.90;1.33;;;17.50;99.90;;;;;;5015840;28;20254;-62
2023/09/18 10:42:08;;;;;;;6.60;1.23;;;17.40;99.90;;;;;;5011698;28;20410;-62
2023/09/18 10:44:34;;;;;;;4.33;1.10;;;17.30;99.90;;;;;;5011860;28;20450;-62
2023/09/18 10:47:05;;;;;;;1.87;1.33;;;17.30;99.90;;;;;;5010270;28;20402;-62
2023/09/18 10:49:31;;;;;;;3.00;1.17;;;17.30;99.90;;;;;;5011603;28;20418;-62
2023/09/18 10:51:58;;;;;;;2.97;1.20;;;17.30;99.90;;;;;;5010336;28;20473;-62
2023/09/18 10:54:25;;;;;;;2.43;1.03;;;17.30;99.90;;;;;;5010644;28;20457;-62
2023/09/18 10:56:52;;;;;;;3.87;0.97;;;17.30;99.90;;;;;;5010654;28;20414;-62
2023/09/18 10:59:20;;;;;;;3.60;1.13;;;17.30;99.90;;;;;;5010945;28;20417;-62
2023/09/18 11:01:47;;;;;;;3.27;1.37;;;17.30;99.90;;;;;;5010045;28;20472;-62
2023/09/18 11:04:14;;;;;;;5.20;1.57;;;17.30;99.90;;;;;;5011208;28;20517;-62
2023/09/18 11:06:55;;;;;;;2.57;1.40;;;17.30;99.90;;;;;;5010106;28;20782;-62
2023/09/18 11:09:26;;;;;;;2.70;1.20;;;17.30;99.90;;;;;;5010441;28;20542;-62
2023/09/18 11:12:02;;;;;;;2.90;1.03;;;17.30;99.90;;;;;;5010308;28;21172;-62
2023/09/18 11:14:56;;;;;;;4.73;1.77;;;17.40;99.90;;;;;;5013240;28;20469;-62
2023/09/18 11:17:35;;;;;;;6.00;1.23;;;17.30;99.90;;;;;;5013149;28;20475;-62
2023/09/18 11:20:17;;;;;;;4.90;1.33;;;17.30;99.90;;;;;;5015114;28;20430;-62
2023/09/18 11:22:58;;;;;;;2.00;1.07;;;17.30;99.90;;;;;;5013896;28;21081;-62
2023/09/18 11:25:42;;;;;;;4.43;1.17;;;17.40;99.90;;;;;;5013830;28;20428;-62
2023/09/18 11:28:15;;;;;;;1.30;0.63;;;17.40;99.90;;;;;;5014142;28;20418;-62
2023/09/18 11:30:50;;;;;;;1.60;0.87;;;17.40;99.90;;;;;;5014537;28;20816;-62
2023/09/18 11:33:30;;;;;;;6.70;1.20;;;17.50;99.90;;;;;;5014028;28;20492;-62
2023/09/18 11:35:56;;;;;;;1.50;0.90;;;17.60;99.90;;;;;;5001522;28;21170;-62
2023/09/18 11:38:24;;;;;;;1.90;1.00;;;17.60;99.90;;;;;;5013318;28;20414;-62
2023/09/18 11:40:50;;;;;;;2.07;1.03;;;17.50;99.90;;;;;;5014377;28;20636;-62
2023/09/18 11:43:18;;;;;;;2.83;1.07;;;17.70;99.90;;;;;;5013532;28;20426;-62
2023/09/18 11:45:50;;;;;;;3.40;1.20;;;17.70;99.90;;;;;;5013843;28;20175;-62
2023/09/18 11:48:15;;;;;;;3.80;0.90;;;17.80;99.90;;;;;;5013565;28;20453;-62
2023/09/18 11:50:42;;;;;;;3.17;1.00;;;17.90;99.90;;;;;;5014851;28;20523;-62
2023/09/18 11:53:08;;;;;;;2.20;0.90;;;17.90;99.90;;;;;;5013745;28;20635;-62
2023/09/18 11:55:34;;;;;;;1.83;0.90;;;17.80;99.90;;;;;;5013597;28;20418;-62
2023/09/18 11:58:01;;;;;;;2.50;0.90;;;17.90;99.90;;;;;;5013422;28;20179;-62
2023/09/18 12:00:29;;;;;;;6.27;1.10;;;17.90;99.90;;;;;;5011958;28;20422;-62
2023/09/18 12:02:55;;;;;;;1.60;0.83;;;18.00;99.90;;;;;;5013499;28;20426;-62
2023/09/18 12:05:25;;;;;;;10.57;0.73;;;18.10;99.90;;;;;;5014517;28;20429;-62
2023/09/18 12:07:51;;;;;;;2.33;1.27;;;18.10;99.90;;;;;;5013295;28;20186;-62
2023/09/18 12:10:20;;;;;;;2.57;0.97;;;18.10;99.90;;;;;;5013406;28;20465;-62
2023/09/18 12:12:47;;;;;;;3.90;1.00;;;18.10;99.90;;;;;;5013586;28;20180;-62
2023/09/18 12:15:17;;;;;;;6.50;0.90;;;18.30;99.90;;;;;;5013788;28;20422;-62
2023/09/18 12:17:43;;;;;;;1.50;0.70;;;18.30;99.90;;;;;;5012369;28;20410;-62
2023/09/18 12:20:18;;;;;;;1.40;0.63;;;18.30;99.90;;;;;;5014060;28;20425;-62
2023/09/18 12:22:48;;;;;;;1.97;0.80;;;18.30;99.90;;;;;;5012868;28;20249;-62
2023/09/18 12:25:15;;;;;;;2.63;0.87;;;18.40;99.90;;;;;;5012994;28;20513;-62
2023/09/18 12:27:41;;;;;;;4.90;0.80;;;18.40;99.90;;;;;;5012259;28;20418;-62
2023/09/18 12:30:08;;;;;;;1.60;0.80;;;18.60;99.90;;;;;;5012028;28;20462;-62
2023/09/18 12:32:37;;;;;;;1.83;0.90;;;18.70;99.90;;;;;;5012523;28;20410;-62
2023/09/18 12:35:06;;;;;;;9.27;0.90;;;19.00;99.90;;;;;;5013222;28;20426;-62
2023/09/18 12:37:38;;;;;;;5.63;0.90;;;19.30;99.90;;;;;;5012120;28;20417;-62
2023/09/18 12:40:10;;;;;;;2.00;0.83;;;19.50;99.90;;;;;;5012818;28;20894;-62
2023/09/18 12:42:40;;;;;;;2.50;0.77;;;19.60;99.90;;;;;;5012791;28;20441;-62
2023/09/18 12:45:07;;;;;;;3.23;0.87;;;19.70;99.90;;;;;;5013239;28;20422;-62
2023/09/18 12:47:33;;;;;;;10.93;1.30;;;19.90;99.90;;;;;;5012007;28;21061;-62